createdAt,value
2018-07-03T00:02:19.670Z,96.10
2018-07-03T00:04:48.062Z,96.50
2018-07-03T00:07:16.485Z,96.40
2018-07-03T00:09:44.827Z,95.40
2018-07-03T00:12:13.340Z,96.30
2018-07-03T00:14:44.742Z,96.60
2018-07-03T00:17:16.812Z,96.90
2018-07-03T00:19:48.042Z,96.50
2018-07-03T00:22:16.485Z,96.70
2018-07-03T00:24:45.524Z,97.00
2018-07-03T00:27:14.243Z,97.00
2018-07-03T00:29:42.707Z,97.00
2018-07-03T00:32:11.095Z,97.00
2018-07-03T00:34:39.521Z,97.00
2018-07-03T00:37:07.890Z,97.00
2018-07-03T00:39:36.236Z,97.00
2018-07-03T00:42:04.660Z,97.00
2018-07-03T00:44:33.089Z,97.00
2018-07-03T00:47:01.564Z,97.00
2018-07-03T00:49:29.939Z,97.00
2018-07-03T00:51:58.299Z,97.00
2018-07-03T00:54:26.679Z,97.00
2018-07-03T00:56:55.082Z,97.00
2018-07-03T00:59:23.478Z,97.00
2018-07-03T01:01:51.893Z,97.00
2018-07-03T01:04:20.261Z,97.00
2018-07-03T01:06:48.656Z,97.00
2018-07-03T01:09:17.032Z,97.00
2018-07-03T01:11:45.532Z,97.00
2018-07-03T01:14:13.964Z,97.00
2018-07-03T01:16:42.418Z,97.00
2018-07-03T01:19:10.783Z,97.00
2018-07-03T01:21:39.214Z,97.00
2018-07-03T01:24:07.660Z,97.00
2018-07-03T01:26:36.047Z,97.00
2018-07-03T01:29:04.540Z,97.00
2018-07-03T01:31:32.891Z,97.00
2018-07-03T01:34:01.295Z,97.00
2018-07-03T01:36:29.667Z,97.00
2018-07-03T01:38:58.031Z,97.00
2018-07-03T01:41:26.446Z,97.00
2018-07-03T01:43:54.855Z,97.00
2018-07-03T01:46:23.196Z,97.00
2018-07-03T01:48:51.530Z,97.00
2018-07-03T01:51:19.889Z,97.00
2018-07-03T01:53:48.302Z,97.00
2018-07-03T01:56:16.670Z,97.00
2018-07-03T01:58:45.049Z,97.00
2018-07-03T02:01:13.414Z,97.00
2018-07-03T02:03:41.748Z,97.00
2018-07-03T02:06:10.101Z,97.00
2018-07-03T02:08:38.446Z,97.00
2018-07-03T02:11:06.868Z,97.00
2018-07-03T02:13:35.253Z,97.00
2018-07-03T02:16:05.950Z,97.00
2018-07-03T02:18:34.378Z,97.00
2018-07-03T02:21:02.884Z,97.00
2018-07-03T02:23:31.475Z,97.00
2018-07-03T02:25:59.914Z,97.00
2018-07-03T02:28:28.281Z,97.00
2018-07-03T02:30:56.671Z,97.00
2018-07-03T02:33:25.040Z,97.00
2018-07-03T02:35:53.404Z,97.00
2018-07-03T02:43:17.923Z,97.00
2018-07-03T02:45:46.337Z,97.00
2018-07-03T02:48:14.716Z,97.00
2018-07-03T02:50:43.104Z,97.00
2018-07-03T02:53:11.472Z,97.00
2018-07-03T02:55:40.105Z,97.00
2018-07-03T02:58:08.882Z,97.00
2018-07-03T03:00:37.255Z,97.00
2018-07-03T03:03:05.672Z,97.00
2018-07-03T03:05:34.043Z,97.00
2018-07-03T03:08:02.968Z,97.00
2018-07-03T03:10:31.845Z,97.00
2018-07-03T03:13:00.247Z,97.00
2018-07-03T03:15:28.751Z,97.00
2018-07-03T03:17:57.247Z,97.00
2018-07-03T03:20:25.625Z,97.00
2018-07-03T03:22:54.028Z,97.00
2018-07-03T03:25:22.372Z,97.00
2018-07-03T03:27:50.750Z,97.00
2018-07-03T03:30:19.115Z,97.00
2018-07-03T03:32:47.501Z,97.00
2018-07-03T03:35:15.915Z,97.00
2018-07-03T03:37:44.386Z,97.00
2018-07-03T03:40:12.823Z,97.00
2018-07-03T03:42:41.219Z,97.00
2018-07-03T03:45:10.001Z,97.00
2018-07-03T03:47:38.373Z,97.00
2018-07-03T03:50:07.699Z,97.00
2018-07-03T03:52:36.091Z,97.00
2018-07-03T03:55:04.634Z,97.00
2018-07-03T03:57:33.031Z,97.00
2018-07-03T04:00:01.411Z,97.00
2018-07-03T04:02:29.799Z,97.00
2018-07-03T04:04:58.172Z,97.00
2018-07-03T04:07:26.544Z,97.00
2018-07-03T04:09:54.930Z,97.00
2018-07-03T04:12:23.313Z,97.00
2018-07-03T04:14:51.694Z,97.00
2018-07-03T04:17:20.078Z,97.00
2018-07-03T04:19:48.449Z,97.00
2018-07-03T04:22:16.815Z,97.00
2018-07-03T04:27:13.269Z,97.00
2018-07-03T04:29:41.640Z,97.00
2018-07-03T04:32:09.974Z,97.00
2018-07-03T04:34:39.947Z,97.00
2018-07-03T04:37:08.290Z,97.00
2018-07-03T04:39:36.622Z,97.00
2018-07-03T04:42:05.042Z,97.00
2018-07-03T04:44:33.421Z,97.00
2018-07-03T04:47:01.805Z,97.00
2018-07-03T04:49:30.170Z,97.00
2018-07-03T04:51:58.526Z,97.00
2018-07-03T04:54:26.893Z,97.00
2018-07-03T04:56:55.275Z,97.00
2018-07-03T04:59:23.769Z,97.00
2018-07-03T05:01:52.092Z,97.00
2018-07-03T05:04:20.513Z,97.00
2018-07-03T05:06:48.862Z,97.00
2018-07-03T05:09:17.357Z,97.00
2018-07-03T05:11:45.719Z,97.00
2018-07-03T05:14:14.033Z,97.00
2018-07-03T05:16:42.477Z,97.00
2018-07-03T05:19:10.863Z,96.90
2018-07-03T05:21:39.208Z,96.10
2018-07-03T05:26:35.665Z,94.70
2018-07-03T05:29:04.051Z,94.20
2018-07-03T05:31:32.464Z,92.70
2018-07-03T05:34:00.891Z,92.70
2018-07-03T05:36:29.268Z,92.00
2018-07-03T05:38:57.615Z,91.60
2018-07-03T05:41:25.944Z,90.60
2018-07-03T05:43:54.356Z,90.00
2018-07-03T05:46:22.704Z,89.70
2018-07-03T05:48:51.071Z,89.30
2018-07-03T05:51:19.441Z,89.10
2018-07-03T05:53:47.807Z,88.50
2018-07-03T05:56:16.185Z,87.30
2018-07-03T05:58:44.522Z,86.30
2018-07-03T06:01:12.871Z,85.70
2018-07-03T06:03:41.323Z,85.40
2018-07-03T06:06:09.800Z,85.40
2018-07-03T06:08:38.152Z,84.70
2018-07-03T06:11:07.607Z,84.30
2018-07-03T06:13:35.982Z,83.80
2018-07-03T06:16:04.532Z,83.20
2018-07-03T06:18:39.458Z,82.90
2018-07-03T06:21:07.842Z,81.90
2018-07-03T06:23:36.210Z,81.60
2018-07-03T06:26:04.575Z,81.20
2018-07-03T06:28:32.960Z,81.50
2018-07-03T06:31:01.355Z,80.70
2018-07-03T06:33:29.729Z,79.40
2018-07-03T06:35:58.142Z,78.90
2018-07-03T06:38:26.535Z,78.00
2018-07-03T06:40:54.954Z,77.10
2018-07-03T06:43:23.305Z,76.50
2018-07-03T06:45:51.649Z,76.30
2018-07-03T06:48:20.021Z,76.10
2018-07-03T06:50:48.411Z,75.40
2018-07-03T06:53:16.815Z,75.60
2018-07-03T06:55:45.225Z,74.80
2018-07-03T06:58:13.556Z,74.40
2018-07-03T07:00:41.958Z,74.90
2018-07-03T07:03:10.348Z,74.30
2018-07-03T07:05:38.695Z,74.10
2018-07-03T07:08:07.087Z,73.10
2018-07-03T07:10:35.471Z,71.80
2018-07-03T07:13:03.872Z,71.70
2018-07-03T07:15:32.307Z,70.50
2018-07-03T07:18:01.628Z,70.70
2018-07-03T07:20:30.315Z,70.30
2018-07-03T07:22:58.691Z,70.50
2018-07-03T07:25:27.052Z,70.10
2018-07-03T07:27:55.528Z,70.10
2018-07-03T07:30:23.864Z,69.40
2018-07-03T07:32:52.220Z,69.30
2018-07-03T07:35:20.606Z,68.90
2018-07-03T07:37:48.999Z,68.50
2018-07-03T07:40:17.339Z,67.90
2018-07-03T07:42:45.692Z,68.10
2018-07-03T07:45:14.117Z,67.80
2018-07-03T07:47:42.861Z,67.50
2018-07-03T07:50:11.242Z,67.40
2018-07-03T07:52:39.785Z,66.50
2018-07-03T07:55:08.111Z,65.90
2018-07-03T07:57:36.505Z,65.30
2018-07-03T08:00:05.529Z,64.90
2018-07-03T08:02:33.909Z,64.90
2018-07-03T08:05:02.379Z,65.20
2018-07-03T08:07:30.782Z,64.80
2018-07-03T08:09:59.147Z,64.80
2018-07-03T08:12:27.614Z,64.50
2018-07-03T08:14:55.985Z,63.40
2018-07-03T08:17:24.370Z,62.90
2018-07-03T08:19:52.810Z,62.60
2018-07-03T08:22:21.248Z,62.20
2018-07-03T08:24:49.591Z,62.00
2018-07-03T08:27:17.992Z,62.00
2018-07-03T08:29:46.366Z,59.80
2018-07-03T08:32:14.755Z,60.00
2018-07-03T08:34:43.182Z,58.90
2018-07-03T08:37:11.651Z,58.60
2018-07-03T08:39:40.110Z,59.00
2018-07-03T08:42:08.591Z,58.90
2018-07-03T08:44:36.937Z,59.00
2018-07-03T08:47:05.306Z,58.70
2018-07-03T08:49:33.774Z,58.30
2018-07-03T08:52:02.176Z,58.00
2018-07-03T08:54:30.494Z,57.80
2018-07-03T08:56:58.853Z,57.00
2018-07-03T08:59:27.207Z,57.20
2018-07-03T09:01:55.589Z,57.50
2018-07-03T09:04:23.905Z,57.90
2018-07-03T09:06:52.299Z,56.50
2018-07-03T09:09:20.689Z,57.50
2018-07-03T09:11:49.101Z,56.80
2018-07-03T09:14:17.437Z,55.90
2018-07-03T09:16:45.832Z,55.90
2018-07-03T09:19:14.241Z,56.30
2018-07-03T09:21:42.651Z,56.80
2018-07-03T09:24:11.001Z,55.40
2018-07-03T09:26:39.391Z,55.50
2018-07-03T09:29:07.773Z,55.60
2018-07-03T09:31:36.143Z,55.40
2018-07-03T09:34:04.648Z,55.60
2018-07-03T09:36:33.063Z,54.50
2018-07-03T09:39:02.230Z,54.10
2018-07-03T09:41:30.641Z,53.10
2018-07-03T09:43:59.047Z,53.10
2018-07-03T09:46:27.519Z,52.40
2018-07-03T09:53:47.106Z,51.50
2018-07-03T09:56:15.731Z,50.70
2018-07-03T09:58:44.228Z,50.30
2018-07-03T10:01:18.652Z,50.80
2018-07-03T10:03:47.048Z,50.70
2018-07-03T10:06:15.591Z,51.20
2018-07-03T10:08:44.076Z,51.40
2018-07-03T10:11:12.598Z,50.90
2018-07-03T10:13:40.970Z,50.60
2018-07-03T10:16:09.656Z,51.00
2018-07-03T10:18:38.211Z,49.70
2018-07-03T10:21:06.679Z,50.00
2018-07-03T10:23:35.441Z,50.10
2018-07-03T10:26:04.131Z,50.70
2018-07-03T10:28:32.670Z,50.50
2018-07-03T10:31:01.123Z,49.90
2018-07-03T10:33:29.599Z,50.40
2018-07-03T10:35:58.176Z,50.30
2018-07-03T10:38:26.808Z,50.20
2018-07-03T10:40:55.489Z,50.80
2018-07-03T10:43:24.107Z,50.10
2018-07-03T10:45:52.595Z,50.60
2018-07-03T10:48:20.989Z,50.80
2018-07-03T10:50:49.445Z,50.30
2018-07-03T10:55:46.257Z,49.90
2018-07-03T10:58:14.764Z,49.80
2018-07-03T11:00:43.118Z,49.60
2018-07-03T11:03:11.641Z,49.60
2018-07-03T11:08:08.464Z,49.20
2018-07-03T11:10:36.954Z,49.10
2018-07-03T11:13:05.442Z,48.20
2018-07-03T11:15:33.914Z,48.20
2018-07-03T11:18:02.603Z,48.20
2018-07-03T11:20:31.105Z,49.00
2018-07-03T11:25:27.736Z,48.80
2018-07-03T11:27:56.144Z,49.30
2018-07-03T11:30:24.634Z,48.20
2018-07-03T11:32:53.056Z,49.40
2018-07-03T11:35:21.472Z,49.30
2018-07-03T11:37:49.981Z,48.50
2018-07-03T11:40:18.348Z,49.90
2018-07-03T11:42:46.672Z,48.70
2018-07-03T11:45:15.255Z,48.00
2018-07-03T11:47:43.788Z,48.30
2018-07-03T11:50:12.205Z,48.50
2018-07-03T11:52:40.598Z,48.80
2018-07-03T11:55:09.059Z,48.10
2018-07-03T11:57:37.564Z,47.90
2018-07-03T12:00:06.188Z,48.20
2018-07-03T12:05:02.772Z,47.00
2018-07-03T12:07:31.204Z,47.30
2018-07-03T12:09:59.662Z,47.10
2018-07-03T12:12:28.132Z,46.60
2018-07-03T12:14:56.625Z,46.40
2018-07-03T12:17:25.166Z,47.50
2018-07-03T12:19:53.733Z,47.50
2018-07-03T12:22:22.141Z,47.50
2018-07-03T12:24:50.683Z,48.00
2018-07-03T12:27:19.172Z,47.80
2018-07-03T12:29:47.620Z,47.20
2018-07-03T12:32:15.997Z,47.40
2018-07-03T12:34:44.476Z,48.20
2018-07-03T12:39:43.136Z,49.90
2018-07-03T12:42:18.092Z,50.50
2018-07-03T12:44:46.498Z,49.80
2018-07-03T12:47:16.174Z,50.80
2018-07-03T12:49:44.736Z,50.40
2018-07-03T12:52:12.976Z,50.10
2018-07-03T12:54:41.520Z,51.10
2018-07-03T12:57:09.989Z,51.00
2018-07-03T12:59:38.550Z,50.60
2018-07-03T13:02:07.067Z,50.50
2018-07-03T13:04:35.517Z,50.20
2018-07-03T13:07:04.067Z,49.90
2018-07-03T13:09:32.539Z,50.40
2018-07-03T13:14:29.209Z,50.20
2018-07-03T13:17:00.715Z,50.40
2018-07-03T13:19:29.264Z,50.00
2018-07-03T13:21:57.599Z,50.00
2018-07-03T13:24:26.008Z,50.60
2018-07-03T13:26:54.385Z,50.40
2018-07-03T13:29:22.832Z,50.50
2018-07-03T13:31:51.217Z,49.80
2018-07-03T13:34:19.570Z,50.50
2018-07-03T13:36:47.947Z,50.10
2018-07-03T13:39:16.407Z,50.90
2018-07-03T13:41:44.864Z,51.20
2018-07-03T13:44:13.335Z,52.50
2018-07-03T13:46:41.791Z,52.60
2018-07-03T13:49:10.239Z,52.90
2018-07-03T13:51:38.669Z,51.50
2018-07-03T13:54:07.128Z,51.70
2018-07-03T13:56:35.608Z,50.90
2018-07-03T13:59:04.163Z,50.80
2018-07-03T14:01:32.719Z,50.80
2018-07-03T14:04:01.383Z,51.00
2018-07-03T14:06:29.874Z,50.80
2018-07-03T14:08:58.394Z,50.50
2018-07-03T14:11:26.870Z,49.90
2018-07-03T14:13:55.304Z,49.70
2018-07-03T14:16:23.777Z,49.90
2018-07-03T14:18:52.294Z,48.30
2018-07-03T14:21:20.696Z,48.90
2018-07-03T14:23:49.379Z,49.30
2018-07-03T14:26:18.024Z,49.40
2018-07-03T14:28:46.400Z,49.00
2018-07-03T14:31:14.829Z,48.40
2018-07-03T14:33:43.380Z,48.50
2018-07-03T14:36:12.138Z,48.60
2018-07-03T14:38:40.613Z,48.50
2018-07-03T14:41:09.692Z,47.90
2018-07-03T14:43:38.559Z,47.80
2018-07-03T14:46:07.051Z,47.90
2018-07-03T14:48:35.435Z,47.80
2018-07-03T14:51:03.860Z,48.00
2018-07-03T14:53:32.382Z,47.30
2018-07-03T14:56:00.779Z,47.90
2018-07-03T14:58:29.215Z,47.80
2018-07-03T15:00:57.684Z,48.20
2018-07-03T15:03:26.119Z,49.30
2018-07-03T15:05:54.681Z,49.20
2018-07-03T15:08:23.149Z,48.90
2018-07-03T15:10:51.606Z,49.00
2018-07-03T15:13:20.183Z,48.80
2018-07-03T15:15:48.796Z,47.40
2018-07-03T15:18:17.298Z,47.70
2018-07-03T15:20:45.876Z,47.50
2018-07-03T15:23:14.415Z,47.00
2018-07-03T15:25:43.006Z,47.30
2018-07-03T15:28:11.574Z,47.60
2018-07-03T15:30:40.152Z,48.00
2018-07-03T15:33:09.543Z,48.00
2018-07-03T15:35:37.950Z,48.30
2018-07-03T15:38:06.685Z,47.50
2018-07-03T15:40:35.076Z,47.80
2018-07-03T15:43:03.622Z,48.80
2018-07-03T15:45:32.160Z,50.20
2018-07-03T15:48:00.851Z,49.90
2018-07-03T15:50:29.497Z,49.70
2018-07-03T15:52:58.156Z,50.20
2018-07-03T15:55:26.564Z,50.50
2018-07-03T15:57:55.020Z,49.50
2018-07-03T16:00:23.573Z,50.60
2018-07-03T16:06:11.097Z,50.70
2018-07-03T16:09:12.061Z,50.20
2018-07-03T16:11:40.849Z,50.40
2018-07-03T16:14:10.499Z,50.30
2018-07-03T16:16:39.111Z,51.40
2018-07-03T16:19:12.920Z,51.10
2018-07-03T16:21:41.338Z,50.90
2018-07-03T16:24:10.082Z,52.10
2018-07-03T16:26:39.075Z,51.50
2018-07-03T16:29:09.244Z,52.00
2018-07-03T16:31:37.687Z,51.50
2018-07-03T16:34:06.192Z,52.20
2018-07-03T16:36:34.689Z,52.10
2018-07-03T16:39:04.251Z,52.60
2018-07-03T16:41:32.750Z,52.30
2018-07-03T16:44:01.346Z,52.30
2018-07-03T16:46:29.777Z,53.10
2018-07-03T16:48:58.377Z,53.10
2018-07-03T16:51:26.860Z,53.30
2018-07-03T16:53:55.309Z,53.30
2018-07-03T16:56:23.774Z,53.10
2018-07-03T16:58:52.339Z,53.10
2018-07-03T17:01:20.764Z,53.40
2018-07-03T17:03:49.107Z,53.30
2018-07-03T17:06:17.574Z,54.00
2018-07-03T17:08:46.048Z,53.90
2018-07-03T17:11:14.441Z,53.80
2018-07-03T17:13:42.847Z,54.30
2018-07-03T17:16:11.287Z,55.10
2018-07-03T17:18:44.135Z,54.50
2018-07-03T17:21:12.623Z,54.80
2018-07-03T17:23:40.975Z,54.80
2018-07-03T17:26:09.347Z,55.40
2018-07-03T17:28:38.034Z,55.30
2018-07-03T17:31:06.812Z,55.50
2018-07-03T17:33:35.248Z,55.40
2018-07-03T17:36:03.682Z,55.30
2018-07-03T17:38:32.402Z,56.20
2018-07-03T17:41:12.147Z,55.80
2018-07-03T17:46:21.930Z,56.00
2018-07-03T17:48:50.399Z,55.80
2018-07-03T17:51:18.939Z,56.60
2018-07-03T17:53:47.521Z,55.30
2018-07-03T17:56:15.998Z,55.20
2018-07-03T17:58:44.467Z,55.70
2018-07-03T18:01:12.965Z,56.30
2018-07-03T18:03:41.411Z,56.30
2018-07-03T18:06:09.808Z,55.60
2018-07-03T18:08:38.425Z,55.90
2018-07-03T18:11:06.954Z,57.10
2018-07-03T18:13:35.450Z,56.50
2018-07-03T18:16:03.864Z,56.60
2018-07-03T18:18:32.261Z,57.00
2018-07-03T18:21:00.702Z,56.90
2018-07-03T18:23:29.092Z,57.80
2018-07-03T18:25:57.670Z,58.50
2018-07-03T18:28:26.283Z,58.60
2018-07-03T18:30:54.838Z,58.20
2018-07-03T18:33:23.399Z,58.00
2018-07-03T18:35:51.868Z,58.20
2018-07-03T18:38:20.399Z,59.00
2018-07-03T18:40:48.913Z,58.70
2018-07-03T18:45:45.715Z,59.70
2018-07-03T18:48:14.149Z,58.90
2018-07-03T18:50:42.547Z,59.10
2018-07-03T18:53:12.980Z,59.30
2018-07-03T18:55:41.536Z,59.80
2018-07-03T18:58:09.970Z,60.80
2018-07-03T19:00:38.356Z,61.60
2018-07-03T19:03:06.931Z,62.00
2018-07-03T19:05:35.375Z,62.40
2018-07-03T19:08:03.789Z,63.10
2018-07-03T19:10:32.148Z,62.90
2018-07-03T19:13:00.528Z,63.70
2018-07-03T19:15:28.909Z,63.90
2018-07-03T19:17:57.342Z,64.20
2018-07-03T19:20:25.792Z,63.90
2018-07-03T19:22:54.322Z,64.60
2018-07-03T19:25:22.807Z,64.80
2018-07-03T19:27:51.323Z,65.30
2018-07-03T19:30:19.720Z,66.50
2018-07-03T19:32:48.267Z,67.50
2018-07-03T19:35:16.778Z,67.50
2018-07-03T19:37:45.218Z,68.60
2018-07-03T19:42:53.142Z,70.60
2018-07-03T19:45:21.658Z,71.20
2018-07-03T19:47:50.177Z,72.80
2018-07-03T19:50:18.605Z,74.30
2018-07-03T19:52:47.059Z,75.80
2018-07-03T19:55:15.569Z,77.00
2018-07-03T19:57:44.128Z,77.20
2018-07-03T20:00:12.811Z,78.10
2018-07-03T20:02:41.164Z,78.80
2018-07-03T20:05:09.607Z,79.40
2018-07-03T20:07:38.150Z,79.80
2018-07-03T20:10:06.502Z,80.00
2018-07-03T20:12:35.048Z,80.70
2018-07-03T20:15:03.544Z,80.80
2018-07-03T20:17:31.985Z,81.20
2018-07-03T20:20:00.470Z,81.30
2018-07-03T20:22:28.895Z,81.90
2018-07-03T20:24:57.745Z,81.90
2018-07-03T20:27:26.251Z,82.20
2018-07-03T20:29:54.655Z,82.30
2018-07-03T20:32:23.073Z,82.70
2018-07-03T20:34:51.478Z,83.10
2018-07-03T20:37:20.010Z,83.30
2018-07-03T20:39:48.442Z,83.40
2018-07-03T20:42:16.851Z,83.90
2018-07-03T20:44:45.381Z,83.90
2018-07-03T20:47:13.824Z,84.00
2018-07-03T20:49:42.379Z,84.50
2018-07-03T20:52:10.814Z,84.60
2018-07-03T20:54:39.221Z,84.90
2018-07-03T20:57:07.680Z,85.10
2018-07-03T20:59:36.051Z,85.50
2018-07-03T21:02:04.488Z,85.70
2018-07-03T21:04:32.893Z,86.10
2018-07-03T21:07:01.275Z,85.90
2018-07-03T21:09:29.678Z,86.00
2018-07-03T21:11:58.062Z,86.70
2018-07-03T21:14:26.456Z,86.70
2018-07-03T21:16:54.884Z,86.80
2018-07-03T21:19:24.367Z,87.00
2018-07-03T21:21:54.384Z,87.30
2018-07-03T21:24:23.273Z,87.40
2018-07-03T21:26:51.630Z,87.50
2018-07-03T21:29:19.988Z,87.80
2018-07-03T21:31:48.465Z,87.90
2018-07-03T21:34:16.769Z,88.20
2018-07-03T21:36:45.104Z,88.60
2018-07-03T21:39:13.552Z,88.50
2018-07-03T21:41:41.914Z,89.10
2018-07-03T21:44:10.348Z,89.30
2018-07-03T21:46:39.232Z,89.40
2018-07-03T21:49:07.591Z,90.00
2018-07-03T21:51:35.915Z,90.50
2018-07-03T21:54:04.371Z,90.40
2018-07-03T21:56:32.763Z,90.70
2018-07-03T21:59:02.333Z,91.00
2018-07-03T22:01:30.702Z,90.80
2018-07-03T22:03:59.084Z,90.90
2018-07-03T22:06:27.620Z,91.40
2018-07-03T22:08:56.048Z,91.20
2018-07-03T22:11:24.416Z,91.40
2018-07-03T22:13:52.807Z,91.50
2018-07-03T22:16:21.180Z,92.30
2018-07-03T22:18:49.737Z,92.40
2018-07-03T22:21:20.352Z,92.00
2018-07-03T22:23:48.709Z,93.00
2018-07-03T22:26:17.057Z,93.20
2018-07-03T22:28:45.594Z,93.00
2018-07-03T22:31:14.069Z,93.40
2018-07-03T22:33:42.419Z,94.00
2018-07-03T22:36:10.814Z,94.20
2018-07-03T22:38:39.321Z,94.30
2018-07-03T22:41:07.712Z,94.80
2018-07-03T22:43:36.171Z,94.20
2018-07-03T22:46:04.701Z,94.70
2018-07-03T22:48:33.110Z,95.20
2018-07-03T22:51:01.503Z,95.50
2018-07-03T22:53:30.162Z,95.30
2018-07-03T22:55:58.557Z,95.10
2018-07-03T22:58:26.947Z,95.70
2018-07-03T23:00:55.267Z,95.80
2018-07-03T23:03:23.644Z,96.10
2018-07-03T23:05:52.013Z,96.00
2018-07-03T23:08:20.495Z,96.50
2018-07-03T23:10:48.840Z,96.70
2018-07-03T23:13:17.213Z,96.60
2018-07-03T23:15:45.580Z,96.60
2018-07-03T23:18:13.921Z,97.00
2018-07-03T23:20:42.311Z,96.80
2018-07-03T23:23:10.663Z,97.00
2018-07-03T23:25:39.047Z,97.00
2018-07-03T23:28:07.415Z,97.00
2018-07-03T23:30:35.766Z,97.00
2018-07-03T23:33:04.121Z,97.00
2018-07-03T23:35:32.471Z,97.00
2018-07-03T23:38:00.821Z,97.00
2018-07-03T23:40:29.213Z,97.00
2018-07-03T23:42:57.562Z,97.00
2018-07-03T23:45:30.968Z,97.00
2018-07-03T23:48:10.524Z,97.00
2018-07-03T23:50:50.082Z,97.00
2018-07-03T23:53:29.738Z,97.00
2018-07-03T23:56:09.208Z,97.00
2018-07-03T23:58:48.974Z,97.00
